sensor_id;sensor_type;location;lat;lon;timestamp;temperature;humidity
21108;DHT22;10712;52.944;9.098;2023-12-07T00:01:55;2.20;94.30
21108;DHT22;10712;52.944;9.098;2023-12-07T00:04:20;2.20;94.30
21108;DHT22;10712;52.944;9.098;2023-12-07T00:06:46;2.20;94.30
21108;DHT22;10712;52.944;9.098;2023-12-07T00:09:12;2.20;94.30
21108;DHT22;10712;52.944;9.098;2023-12-07T00:11:38;2.20;94.30
21108;DHT22;10712;52.944;9.098;2023-12-07T00:14:03;2.20;94.30
21108;DHT22;10712;52.944;9.098;2023-12-07T00:16:29;2.30;94.30
21108;DHT22;10712;52.944;9.098;2023-12-07T00:18:55;2.20;94.30
21108;DHT22;10712;52.944;9.098;2023-12-07T00:21:21;2.20;94.30
21108;DHT22;10712;52.944;9.098;2023-12-07T00:23:47;2.20;94.30
21108;DHT22;10712;52.944;9.098;2023-12-07T00:26:12;2.20;94.30
21108;DHT22;10712;52.944;9.098;2023-12-07T00:28:38;2.30;94.30
21108;DHT22;10712;52.944;9.098;2023-12-07T00:31:04;2.30;94.30
21108;DHT22;10712;52.944;9.098;2023-12-07T00:33:30;2.30;94.30
21108;DHT22;10712;52.944;9.098;2023-12-07T00:35:56;2.30;94.30
21108;DHT22;10712;52.944;9.098;2023-12-07T00:38:21;2.30;94.30
21108;DHT22;10712;52.944;9.098;2023-12-07T00:40:48;2.30;94.30
21108;DHT22;10712;52.944;9.098;2023-12-07T00:43:13;2.30;94.30
21108;DHT22;10712;52.944;9.098;2023-12-07T00:45:39;2.30;94.30
21108;DHT22;10712;52.944;9.098;2023-12-07T00:48:05;2.30;94.30
21108;DHT22;10712;52.944;9.098;2023-12-07T00:50:31;2.30;94.30
21108;DHT22;10712;52.944;9.098;2023-12-07T00:52:57;2.30;94.30
21108;DHT22;10712;52.944;9.098;2023-12-07T00:55:23;2.30;94.30
21108;DHT22;10712;52.944;9.098;2023-12-07T00:57:48;2.30;94.30
21108;DHT22;10712;52.944;9.098;2023-12-07T01:00:14;2.30;94.30
21108;DHT22;10712;52.944;9.098;2023-12-07T01:02:41;2.30;94.30
21108;DHT22;10712;52.944;9.098;2023-12-07T01:05:06;2.30;94.30
21108;DHT22;10712;52.944;9.098;2023-12-07T01:07:34;2.20;94.30
21108;DHT22;10712;52.944;9.098;2023-12-07T01:10:00;2.30;94.30
21108;DHT22;10712;52.944;9.098;2023-12-07T01:12:25;2.30;94.30
21108;DHT22;10712;52.944;9.098;2023-12-07T01:14:51;2.30;94.30
21108;DHT22;10712;52.944;9.098;2023-12-07T01:17:17;2.30;94.30
21108;DHT22;10712;52.944;9.098;2023-12-07T01:19:43;2.30;94.30
21108;DHT22;10712;52.944;9.098;2023-12-07T01:22:09;2.30;94.30
21108;DHT22;10712;52.944;9.098;2023-12-07T01:24:34;2.30;94.30
21108;DHT22;10712;52.944;9.098;2023-12-07T01:27:00;2.30;94.30
21108;DHT22;10712;52.944;9.098;2023-12-07T01:29:26;2.30;94.30
21108;DHT22;10712;52.944;9.098;2023-12-07T01:31:52;2.30;94.30
21108;DHT22;10712;52.944;9.098;2023-12-07T01:34:18;2.30;94.30
21108;DHT22;10712;52.944;9.098;2023-12-07T01:36:44;2.30;94.30
21108;DHT22;10712;52.944;9.098;2023-12-07T01:39:10;2.30;94.30
21108;DHT22;10712;52.944;9.098;2023-12-07T01:41:39;2.30;94.30
21108;DHT22;10712;52.944;9.098;2023-12-07T01:44:05;2.30;94.30
21108;DHT22;10712;52.944;9.098;2023-12-07T01:46:32;2.30;94.30
21108;DHT22;10712;52.944;9.098;2023-12-07T01:48:58;2.30;94.30
21108;DHT22;10712;52.944;9.098;2023-12-07T01:51:25;2.30;94.30
21108;DHT22;10712;52.944;9.098;2023-12-07T01:53:52;2.30;94.30
21108;DHT22;10712;52.944;9.098;2023-12-07T01:56:18;2.30;94.30
21108;DHT22;10712;52.944;9.098;2023-12-07T01:58:44;2.30;94.30
21108;DHT22;10712;52.944;9.098;2023-12-07T02:01:11;2.30;94.30
21108;DHT22;10712;52.944;9.098;2023-12-07T02:03:40;2.30;94.30
21108;DHT22;10712;52.944;9.098;2023-12-07T02:06:06;2.30;94.30
21108;DHT22;10712;52.944;9.098;2023-12-07T02:08:34;2.30;94.30
21108;DHT22;10712;52.944;9.098;2023-12-07T02:11:01;2.30;94.30
21108;DHT22;10712;52.944;9.098;2023-12-07T02:13:27;2.30;94.30
21108;DHT22;10712;52.944;9.098;2023-12-07T02:15:56;2.30;94.30
21108;DHT22;10712;52.944;9.098;2023-12-07T02:18:40;2.30;94.30
21108;DHT22;10712;52.944;9.098;2023-12-07T02:21:38;2.30;94.30
21108;DHT22;10712;52.944;9.098;2023-12-07T02:24:27;2.30;94.30
21108;DHT22;10712;52.944;9.098;2023-12-07T02:26:55;2.30;94.30
21108;DHT22;10712;52.944;9.098;2023-12-07T02:29:21;2.30;94.30
21108;DHT22;10712;52.944;9.098;2023-12-07T02:31:47;2.30;94.30
21108;DHT22;10712;52.944;9.098;2023-12-07T02:34:13;2.30;94.30
21108;DHT22;10712;52.944;9.098;2023-12-07T02:36:39;2.30;94.30
21108;DHT22;10712;52.944;9.098;2023-12-07T02:39:08;2.30;94.30
21108;DHT22;10712;52.944;9.098;2023-12-07T02:41:35;2.30;94.30
21108;DHT22;10712;52.944;9.098;2023-12-07T02:44:02;2.30;94.30
21108;DHT22;10712;52.944;9.098;2023-12-07T02:46:29;2.30;94.30
21108;DHT22;10712;52.944;9.098;2023-12-07T02:48:54;2.30;94.30
21108;DHT22;10712;52.944;9.098;2023-12-07T02:51:22;2.30;94.30
21108;DHT22;10712;52.944;9.098;2023-12-07T02:53:48;2.30;94.30
21108;DHT22;10712;52.944;9.098;2023-12-07T02:56:14;2.30;94.30
21108;DHT22;10712;52.944;9.098;2023-12-07T02:58:40;2.30;94.30
21108;DHT22;10712;52.944;9.098;2023-12-07T03:01:06;2.30;94.30
21108;DHT22;10712;52.944;9.098;2023-12-07T03:03:32;2.30;94.30
21108;DHT22;10712;52.944;9.098;2023-12-07T03:05:58;2.30;94.30
21108;DHT22;10712;52.944;9.098;2023-12-07T03:08:24;2.30;94.30
21108;DHT22;10712;52.944;9.098;2023-12-07T03:10:49;2.30;94.30
21108;DHT22;10712;52.944;9.098;2023-12-07T03:13:15;2.30;94.30
21108;DHT22;10712;52.944;9.098;2023-12-07T03:15:41;2.30;94.30
21108;DHT22;10712;52.944;9.098;2023-12-07T03:18:07;2.30;94.30
21108;DHT22;10712;52.944;9.098;2023-12-07T03:20:33;2.30;94.30
21108;DHT22;10712;52.944;9.098;2023-12-07T03:22:59;2.30;94.30
21108;DHT22;10712;52.944;9.098;2023-12-07T03:25:25;2.30;94.30
21108;DHT22;10712;52.944;9.098;2023-12-07T03:27:50;2.30;94.30
21108;DHT22;10712;52.944;9.098;2023-12-07T03:30:16;2.30;94.30
21108;DHT22;10712;52.944;9.098;2023-12-07T03:32:43;2.30;94.30
21108;DHT22;10712;52.944;9.098;2023-12-07T03:35:08;2.30;94.30
21108;DHT22;10712;52.944;9.098;2023-12-07T03:37:34;2.30;94.30
21108;DHT22;10712;52.944;9.098;2023-12-07T03:40:00;2.30;94.30
21108;DHT22;10712;52.944;9.098;2023-12-07T03:42:26;2.30;94.30
21108;DHT22;10712;52.944;9.098;2023-12-07T03:44:51;2.30;94.30
21108;DHT22;10712;52.944;9.098;2023-12-07T03:47:17;2.30;94.30
21108;DHT22;10712;52.944;9.098;2023-12-07T03:49:44;2.30;94.30
21108;DHT22;10712;52.944;9.098;2023-12-07T03:52:10;2.30;94.30
21108;DHT22;10712;52.944;9.098;2023-12-07T03:54:36;2.30;94.30
21108;DHT22;10712;52.944;9.098;2023-12-07T03:57:03;2.30;94.30
21108;DHT22;10712;52.944;9.098;2023-12-07T03:59:30;2.30;94.30
21108;DHT22;10712;52.944;9.098;2023-12-07T04:01:56;2.30;94.30
21108;DHT22;10712;52.944;9.098;2023-12-07T04:04:22;2.30;94.30
21108;DHT22;10712;52.944;9.098;2023-12-07T04:06:47;2.30;94.30
21108;DHT22;10712;52.944;9.098;2023-12-07T04:09:13;2.30;94.30
21108;DHT22;10712;52.944;9.098;2023-12-07T04:11:39;2.30;94.30
21108;DHT22;10712;52.944;9.098;2023-12-07T04:14:05;2.30;94.30
21108;DHT22;10712;52.944;9.098;2023-12-07T04:16:31;2.30;94.30
21108;DHT22;10712;52.944;9.098;2023-12-07T04:18:57;2.30;94.30
21108;DHT22;10712;52.944;9.098;2023-12-07T04:21:22;2.30;94.30
21108;DHT22;10712;52.944;9.098;2023-12-07T04:23:48;2.30;94.30
21108;DHT22;10712;52.944;9.098;2023-12-07T04:26:14;2.30;94.30
21108;DHT22;10712;52.944;9.098;2023-12-07T04:28:41;2.30;94.30
21108;DHT22;10712;52.944;9.098;2023-12-07T04:31:07;2.30;94.30
21108;DHT22;10712;52.944;9.098;2023-12-07T04:33:32;2.30;94.30
21108;DHT22;10712;52.944;9.098;2023-12-07T04:35:58;2.30;94.30
21108;DHT22;10712;52.944;9.098;2023-12-07T04:38:24;2.30;94.30
21108;DHT22;10712;52.944;9.098;2023-12-07T04:40:50;2.30;94.30
21108;DHT22;10712;52.944;9.098;2023-12-07T04:43:16;2.30;94.30
21108;DHT22;10712;52.944;9.098;2023-12-07T04:45:42;2.30;94.30
21108;DHT22;10712;52.944;9.098;2023-12-07T04:48:07;2.30;94.30
21108;DHT22;10712;52.944;9.098;2023-12-07T04:50:33;2.30;94.30
21108;DHT22;10712;52.944;9.098;2023-12-07T04:52:59;2.30;94.30
21108;DHT22;10712;52.944;9.098;2023-12-07T04:55:25;2.30;94.30
21108;DHT22;10712;52.944;9.098;2023-12-07T04:57:51;2.30;94.30
21108;DHT22;10712;52.944;9.098;2023-12-07T05:00:18;2.30;94.30
21108;DHT22;10712;52.944;9.098;2023-12-07T05:02:43;2.30;94.30
21108;DHT22;10712;52.944;9.098;2023-12-07T05:05:09;2.30;94.30
21108;DHT22;10712;52.944;9.098;2023-12-07T05:07:35;2.30;94.30
21108;DHT22;10712;52.944;9.098;2023-12-07T05:10:01;2.30;94.30
21108;DHT22;10712;52.944;9.098;2023-12-07T05:12:28;2.30;94.30
21108;DHT22;10712;52.944;9.098;2023-12-07T05:14:53;2.30;94.30
21108;DHT22;10712;52.944;9.098;2023-12-07T05:17:19;2.30;94.30
21108;DHT22;10712;52.944;9.098;2023-12-07T05:19:45;2.30;94.30
21108;DHT22;10712;52.944;9.098;2023-12-07T05:22:11;2.30;94.30
21108;DHT22;10712;52.944;9.098;2023-12-07T05:24:37;2.30;94.30
21108;DHT22;10712;52.944;9.098;2023-12-07T05:27:02;2.30;94.30
21108;DHT22;10712;52.944;9.098;2023-12-07T05:29:29;2.30;94.30
21108;DHT22;10712;52.944;9.098;2023-12-07T05:31:55;2.30;94.30
21108;DHT22;10712;52.944;9.098;2023-12-07T05:34:21;2.30;94.30
21108;DHT22;10712;52.944;9.098;2023-12-07T05:36:46;2.30;94.30
21108;DHT22;10712;52.944;9.098;2023-12-07T05:39:13;2.30;94.30
21108;DHT22;10712;52.944;9.098;2023-12-07T05:41:39;2.30;94.30
21108;DHT22;10712;52.944;9.098;2023-12-07T05:44:04;2.30;94.30
21108;DHT22;10712;52.944;9.098;2023-12-07T05:46:32;2.30;94.30
21108;DHT22;10712;52.944;9.098;2023-12-07T05:49:00;2.20;94.30
21108;DHT22;10712;52.944;9.098;2023-12-07T05:51:26;2.20;94.30
21108;DHT22;10712;52.944;9.098;2023-12-07T05:53:52;2.30;94.30
21108;DHT22;10712;52.944;9.098;2023-12-07T05:56:19;2.20;94.30
21108;DHT22;10712;52.944;9.098;2023-12-07T05:58:48;2.30;94.30
21108;DHT22;10712;52.944;9.098;2023-12-07T06:01:17;2.30;94.30
21108;DHT22;10712;52.944;9.098;2023-12-07T06:03:43;2.20;94.30
21108;DHT22;10712;52.944;9.098;2023-12-07T06:06:12;2.30;94.30
21108;DHT22;10712;52.944;9.098;2023-12-07T06:08:39;2.30;94.30
21108;DHT22;10712;52.944;9.098;2023-12-07T06:11:05;2.30;94.30
21108;DHT22;10712;52.944;9.098;2023-12-07T06:13:31;2.30;94.30
21108;DHT22;10712;52.944;9.098;2023-12-07T06:15:57;2.30;94.30
21108;DHT22;10712;52.944;9.098;2023-12-07T06:18:23;2.30;94.30
21108;DHT22;10712;52.944;9.098;2023-12-07T06:20:48;2.30;94.30
21108;DHT22;10712;52.944;9.098;2023-12-07T06:23:14;2.20;94.30
21108;DHT22;10712;52.944;9.098;2023-12-07T06:25:40;2.20;94.30
21108;DHT22;10712;52.944;9.098;2023-12-07T06:28:06;2.20;94.30
21108;DHT22;10712;52.944;9.098;2023-12-07T06:30:32;2.20;94.30
21108;DHT22;10712;52.944;9.098;2023-12-07T06:32:58;2.20;94.30
21108;DHT22;10712;52.944;9.098;2023-12-07T06:35:24;2.20;94.30
21108;DHT22;10712;52.944;9.098;2023-12-07T06:37:49;2.20;94.30
21108;DHT22;10712;52.944;9.098;2023-12-07T06:40:15;2.20;94.30
21108;DHT22;10712;52.944;9.098;2023-12-07T06:42:41;2.20;94.30
21108;DHT22;10712;52.944;9.098;2023-12-07T06:45:07;2.20;94.30
21108;DHT22;10712;52.944;9.098;2023-12-07T06:47:40;2.20;94.30
21108;DHT22;10712;52.944;9.098;2023-12-07T06:50:08;2.30;94.30
21108;DHT22;10712;52.944;9.098;2023-12-07T06:52:36;2.30;94.30
21108;DHT22;10712;52.944;9.098;2023-12-07T06:55:02;2.30;94.30
21108;DHT22;10712;52.944;9.098;2023-12-07T06:57:28;2.20;94.30
21108;DHT22;10712;52.944;9.098;2023-12-07T06:59:54;2.20;94.30
21108;DHT22;10712;52.944;9.098;2023-12-07T07:02:20;2.20;94.30
21108;DHT22;10712;52.944;9.098;2023-12-07T07:04:46;2.20;94.30
21108;DHT22;10712;52.944;9.098;2023-12-07T07:07:15;2.20;94.30
21108;DHT22;10712;52.944;9.098;2023-12-07T07:09:41;2.20;94.30
21108;DHT22;10712;52.944;9.098;2023-12-07T07:12:07;2.20;94.30
21108;DHT22;10712;52.944;9.098;2023-12-07T07:14:34;2.30;94.30
21108;DHT22;10712;52.944;9.098;2023-12-07T07:17:00;2.30;94.30
21108;DHT22;10712;52.944;9.098;2023-12-07T07:19:25;2.30;94.30
21108;DHT22;10712;52.944;9.098;2023-12-07T07:21:51;2.30;94.30
21108;DHT22;10712;52.944;9.098;2023-12-07T07:24:17;2.30;94.30
21108;DHT22;10712;52.944;9.098;2023-12-07T07:26:43;2.30;94.30
21108;DHT22;10712;52.944;9.098;2023-12-07T07:29:08;2.30;94.30
21108;DHT22;10712;52.944;9.098;2023-12-07T07:31:34;2.30;94.30
21108;DHT22;10712;52.944;9.098;2023-12-07T07:34:01;2.30;94.30
21108;DHT22;10712;52.944;9.098;2023-12-07T07:36:28;2.30;94.30
21108;DHT22;10712;52.944;9.098;2023-12-07T07:38:54;2.30;94.30
21108;DHT22;10712;52.944;9.098;2023-12-07T07:41:21;2.30;94.30
21108;DHT22;10712;52.944;9.098;2023-12-07T07:43:46;2.30;94.30
21108;DHT22;10712;52.944;9.098;2023-12-07T07:46:14;2.30;94.30
21108;DHT22;10712;52.944;9.098;2023-12-07T07:48:40;2.20;94.30
21108;DHT22;10712;52.944;9.098;2023-12-07T07:51:06;2.30;94.30
21108;DHT22;10712;52.944;9.098;2023-12-07T07:53:31;2.30;94.30
21108;DHT22;10712;52.944;9.098;2023-12-07T07:55:57;2.30;94.30
21108;DHT22;10712;52.944;9.098;2023-12-07T07:58:23;2.20;94.30
21108;DHT22;10712;52.944;9.098;2023-12-07T08:00:49;2.20;94.30
21108;DHT22;10712;52.944;9.098;2023-12-07T08:03:16;2.20;94.30
21108;DHT22;10712;52.944;9.098;2023-12-07T08:05:42;2.20;94.30
21108;DHT22;10712;52.944;9.098;2023-12-07T08:08:07;2.20;94.30
21108;DHT22;10712;52.944;9.098;2023-12-07T08:10:34;2.20;94.30
21108;DHT22;10712;52.944;9.098;2023-12-07T08:13:00;2.20;94.30
21108;DHT22;10712;52.944;9.098;2023-12-07T08:15:26;2.20;94.30
21108;DHT22;10712;52.944;9.098;2023-12-07T08:17:52;2.20;94.30
21108;DHT22;10712;52.944;9.098;2023-12-07T08:20:17;2.20;94.30
21108;DHT22;10712;52.944;9.098;2023-12-07T08:22:43;2.20;94.30
21108;DHT22;10712;52.944;9.098;2023-12-07T08:25:11;2.30;94.30
21108;DHT22;10712;52.944;9.098;2023-12-07T08:27:37;2.30;94.30
21108;DHT22;10712;52.944;9.098;2023-12-07T08:30:04;2.30;94.30
21108;DHT22;10712;52.944;9.098;2023-12-07T08:32:31;2.30;94.30
21108;DHT22;10712;52.944;9.098;2023-12-07T08:34:57;2.30;94.30
21108;DHT22;10712;52.944;9.098;2023-12-07T08:37:23;2.30;94.30
21108;DHT22;10712;52.944;9.098;2023-12-07T08:39:48;2.30;94.30
21108;DHT22;10712;52.944;9.098;2023-12-07T08:42:14;2.30;94.30
21108;DHT22;10712;52.944;9.098;2023-12-07T08:44:40;2.30;94.30
21108;DHT22;10712;52.944;9.098;2023-12-07T08:47:06;2.30;94.30
21108;DHT22;10712;52.944;9.098;2023-12-07T08:49:32;2.30;94.30
21108;DHT22;10712;52.944;9.098;2023-12-07T08:51:58;2.30;94.30
21108;DHT22;10712;52.944;9.098;2023-12-07T08:54:24;2.30;94.30
21108;DHT22;10712;52.944;9.098;2023-12-07T08:56:51;2.40;94.30
21108;DHT22;10712;52.944;9.098;2023-12-07T08:59:17;2.40;94.30
21108;DHT22;10712;52.944;9.098;2023-12-07T09:01:43;2.40;94.30
21108;DHT22;10712;52.944;9.098;2023-12-07T09:04:09;2.40;94.30
21108;DHT22;10712;52.944;9.098;2023-12-07T09:06:36;2.40;94.30
21108;DHT22;10712;52.944;9.098;2023-12-07T09:09:03;2.40;94.30
21108;DHT22;10712;52.944;9.098;2023-12-07T09:11:32;2.50;94.30
21108;DHT22;10712;52.944;9.098;2023-12-07T09:13:58;2.50;94.30
21108;DHT22;10712;52.944;9.098;2023-12-07T09:16:24;2.50;94.30
21108;DHT22;10712;52.944;9.098;2023-12-07T09:18:51;2.50;94.30
21108;DHT22;10712;52.944;9.098;2023-12-07T09:21:17;2.50;94.30
21108;DHT22;10712;52.944;9.098;2023-12-07T09:23:43;2.50;94.30
21108;DHT22;10712;52.944;9.098;2023-12-07T09:26:10;2.50;94.30
21108;DHT22;10712;52.944;9.098;2023-12-07T09:28:36;2.60;94.30
21108;DHT22;10712;52.944;9.098;2023-12-07T09:31:02;2.60;94.30
21108;DHT22;10712;52.944;9.098;2023-12-07T09:33:28;2.60;94.30
21108;DHT22;10712;52.944;9.098;2023-12-07T09:35:54;2.60;94.30
21108;DHT22;10712;52.944;9.098;2023-12-07T09:38:19;2.60;94.30
21108;DHT22;10712;52.944;9.098;2023-12-07T09:40:46;2.60;94.30
21108;DHT22;10712;52.944;9.098;2023-12-07T09:43:13;2.60;94.30
21108;DHT22;10712;52.944;9.098;2023-12-07T09:45:39;2.70;94.30
21108;DHT22;10712;52.944;9.098;2023-12-07T09:48:05;2.70;94.30
21108;DHT22;10712;52.944;9.098;2023-12-07T09:50:33;2.70;94.30
21108;DHT22;10712;52.944;9.098;2023-12-07T09:52:59;2.70;94.30
21108;DHT22;10712;52.944;9.098;2023-12-07T09:55:25;2.70;94.30
21108;DHT22;10712;52.944;9.098;2023-12-07T09:57:51;2.80;94.30
21108;DHT22;10712;52.944;9.098;2023-12-07T10:00:20;2.80;94.30
21108;DHT22;10712;52.944;9.098;2023-12-07T10:02:46;2.80;94.30
21108;DHT22;10712;52.944;9.098;2023-12-07T10:05:13;2.80;94.30
21108;DHT22;10712;52.944;9.098;2023-12-07T10:07:43;2.80;94.30
21108;DHT22;10712;52.944;9.098;2023-12-07T10:10:13;2.80;94.30
21108;DHT22;10712;52.944;9.098;2023-12-07T10:13:00;2.80;94.30
21108;DHT22;10712;52.944;9.098;2023-12-07T10:15:26;2.80;94.30
21108;DHT22;10712;52.944;9.098;2023-12-07T10:17:55;2.80;94.30
21108;DHT22;10712;52.944;9.098;2023-12-07T10:20:25;2.80;94.30
21108;DHT22;10712;52.944;9.098;2023-12-07T10:25:33;2.90;94.30
21108;DHT22;10712;52.944;9.098;2023-12-07T10:28:02;2.90;94.30
21108;DHT22;10712;52.944;9.098;2023-12-07T10:30:32;2.90;94.30
21108;DHT22;10712;52.944;9.098;2023-12-07T10:32:58;2.90;94.30
21108;DHT22;10712;52.944;9.098;2023-12-07T10:35:24;2.90;94.30
21108;DHT22;10712;52.944;9.098;2023-12-07T10:37:51;2.90;94.30
21108;DHT22;10712;52.944;9.098;2023-12-07T10:40:17;2.90;94.30
21108;DHT22;10712;52.944;9.098;2023-12-07T10:42:48;2.90;94.30
21108;DHT22;10712;52.944;9.098;2023-12-07T10:45:15;3.00;94.30
21108;DHT22;10712;52.944;9.098;2023-12-07T10:47:43;3.00;94.30
21108;DHT22;10712;52.944;9.098;2023-12-07T10:50:10;3.00;94.30
21108;DHT22;10712;52.944;9.098;2023-12-07T10:52:51;3.00;94.30
21108;DHT22;10712;52.944;9.098;2023-12-07T10:55:22;3.00;94.30
21108;DHT22;10712;52.944;9.098;2023-12-07T10:57:55;3.10;94.30
21108;DHT22;10712;52.944;9.098;2023-12-07T11:00:22;3.10;94.30
21108;DHT22;10712;52.944;9.098;2023-12-07T11:02:53;3.10;94.30
21108;DHT22;10712;52.944;9.098;2023-12-07T11:05:19;3.10;94.30
21108;DHT22;10712;52.944;9.098;2023-12-07T11:07:57;3.10;94.30
21108;DHT22;10712;52.944;9.098;2023-12-07T11:10:48;3.10;94.30
21108;DHT22;10712;52.944;9.098;2023-12-07T11:13:29;3.10;94.30
21108;DHT22;10712;52.944;9.098;2023-12-07T11:15:57;3.10;94.30
21108;DHT22;10712;52.944;9.098;2023-12-07T11:18:26;3.10;94.30
21108;DHT22;10712;52.944;9.098;2023-12-07T11:20:54;3.10;94.30
21108;DHT22;10712;52.944;9.098;2023-12-07T11:23:21;3.10;94.30
21108;DHT22;10712;52.944;9.098;2023-12-07T11:25:48;3.10;94.30
21108;DHT22;10712;52.944;9.098;2023-12-07T11:28:16;3.10;94.30
21108;DHT22;10712;52.944;9.098;2023-12-07T11:30:45;3.10;94.30
21108;DHT22;10712;52.944;9.098;2023-12-07T11:33:12;3.10;94.30
21108;DHT22;10712;52.944;9.098;2023-12-07T11:36:06;3.10;94.30
21108;DHT22;10712;52.944;9.098;2023-12-07T11:38:55;3.10;94.30
21108;DHT22;10712;52.944;9.098;2023-12-07T11:41:35;3.10;94.30
21108;DHT22;10712;52.944;9.098;2023-12-07T11:44:10;3.10;94.30
21108;DHT22;10712;52.944;9.098;2023-12-07T11:46:39;3.20;94.30
21108;DHT22;10712;52.944;9.098;2023-12-07T11:49:04;3.20;94.30
21108;DHT22;10712;52.944;9.098;2023-12-07T11:51:36;3.20;94.30
21108;DHT22;10712;52.944;9.098;2023-12-07T11:54:02;3.20;94.30
21108;DHT22;10712;52.944;9.098;2023-12-07T11:56:28;3.20;94.30
21108;DHT22;10712;52.944;9.098;2023-12-07T11:58:54;3.20;94.30
21108;DHT22;10712;52.944;9.098;2023-12-07T12:01:21;3.20;94.30
21108;DHT22;10712;52.944;9.098;2023-12-07T12:03:49;3.20;94.30
21108;DHT22;10712;52.944;9.098;2023-12-07T12:06:15;3.20;94.30
21108;DHT22;10712;52.944;9.098;2023-12-07T12:08:41;3.20;94.30
21108;DHT22;10712;52.944;9.098;2023-12-07T12:11:08;3.20;94.30
21108;DHT22;10712;52.944;9.098;2023-12-07T12:13:35;3.20;94.30
21108;DHT22;10712;52.944;9.098;2023-12-07T12:16:03;3.20;94.30
21108;DHT22;10712;52.944;9.098;2023-12-07T12:18:29;3.20;94.30
21108;DHT22;10712;52.944;9.098;2023-12-07T12:20:55;3.20;94.30
21108;DHT22;10712;52.944;9.098;2023-12-07T12:23:24;3.20;94.30
21108;DHT22;10712;52.944;9.098;2023-12-07T12:25:51;3.20;94.30
21108;DHT22;10712;52.944;9.098;2023-12-07T12:28:18;3.20;94.30
21108;DHT22;10712;52.944;9.098;2023-12-07T12:30:47;3.20;94.30
21108;DHT22;10712;52.944;9.098;2023-12-07T12:33:14;3.20;94.30
21108;DHT22;10712;52.944;9.098;2023-12-07T12:35:40;3.20;94.30
21108;DHT22;10712;52.944;9.098;2023-12-07T12:38:13;3.20;94.30
21108;DHT22;10712;52.944;9.098;2023-12-07T12:40:39;3.20;94.30
21108;DHT22;10712;52.944;9.098;2023-12-07T12:43:07;3.20;94.30
21108;DHT22;10712;52.944;9.098;2023-12-07T12:45:33;3.20;94.30
21108;DHT22;10712;52.944;9.098;2023-12-07T12:47:59;3.20;94.30
21108;DHT22;10712;52.944;9.098;2023-12-07T12:50:39;3.20;94.30
21108;DHT22;10712;52.944;9.098;2023-12-07T12:53:10;3.20;94.30
21108;DHT22;10712;52.944;9.098;2023-12-07T12:55:37;3.20;94.30
21108;DHT22;10712;52.944;9.098;2023-12-07T12:58:09;3.20;94.30
21108;DHT22;10712;52.944;9.098;2023-12-07T13:00:39;3.30;94.30
21108;DHT22;10712;52.944;9.098;2023-12-07T13:03:06;3.20;94.30
21108;DHT22;10712;52.944;9.098;2023-12-07T13:05:32;3.20;94.30
21108;DHT22;10712;52.944;9.098;2023-12-07T13:08:00;3.30;94.30
21108;DHT22;10712;52.944;9.098;2023-12-07T13:10:27;3.30;94.30
21108;DHT22;10712;52.944;9.098;2023-12-07T13:12:53;3.30;94.30
21108;DHT22;10712;52.944;9.098;2023-12-07T13:15:19;3.30;94.30
21108;DHT22;10712;52.944;9.098;2023-12-07T13:17:44;3.30;94.30
21108;DHT22;10712;52.944;9.098;2023-12-07T13:20:10;3.30;94.30
21108;DHT22;10712;52.944;9.098;2023-12-07T13:22:37;3.30;94.30
21108;DHT22;10712;52.944;9.098;2023-12-07T13:25:05;3.30;94.30
21108;DHT22;10712;52.944;9.098;2023-12-07T13:27:34;3.30;94.30
21108;DHT22;10712;52.944;9.098;2023-12-07T13:30:04;3.30;94.30
21108;DHT22;10712;52.944;9.098;2023-12-07T13:32:33;3.30;94.30
21108;DHT22;10712;52.944;9.098;2023-12-07T13:35:00;3.30;94.30
21108;DHT22;10712;52.944;9.098;2023-12-07T13:37:27;3.30;94.30
21108;DHT22;10712;52.944;9.098;2023-12-07T13:39:53;3.30;94.30
21108;DHT22;10712;52.944;9.098;2023-12-07T13:42:26;3.20;94.30
21108;DHT22;10712;52.944;9.098;2023-12-07T13:44:56;3.20;94.30
21108;DHT22;10712;52.944;9.098;2023-12-07T13:47:24;3.20;94.30
21108;DHT22;10712;52.944;9.098;2023-12-07T13:50:03;3.20;94.30
21108;DHT22;10712;52.944;9.098;2023-12-07T13:52:30;3.20;94.30
21108;DHT22;10712;52.944;9.098;2023-12-07T13:54:58;3.20;94.30
21108;DHT22;10712;52.944;9.098;2023-12-07T13:57:24;3.20;94.30
21108;DHT22;10712;52.944;9.098;2023-12-07T13:59:59;3.20;94.30
21108;DHT22;10712;52.944;9.098;2023-12-07T14:02:24;3.30;94.30
21108;DHT22;10712;52.944;9.098;2023-12-07T14:04:51;3.30;94.30
21108;DHT22;10712;52.944;9.098;2023-12-07T14:07:18;3.30;94.30
21108;DHT22;10712;52.944;9.098;2023-12-07T14:09:48;3.30;94.30
21108;DHT22;10712;52.944;9.098;2023-12-07T14:12:16;3.30;94.30
21108;DHT22;10712;52.944;9.098;2023-12-07T14:14:44;3.30;94.30
21108;DHT22;10712;52.944;9.098;2023-12-07T14:17:12;3.30;94.30
21108;DHT22;10712;52.944;9.098;2023-12-07T14:19:39;3.30;94.30
21108;DHT22;10712;52.944;9.098;2023-12-07T14:22:06;3.30;94.30
21108;DHT22;10712;52.944;9.098;2023-12-07T14:24:35;3.30;94.30
21108;DHT22;10712;52.944;9.098;2023-12-07T14:27:06;3.30;94.30
21108;DHT22;10712;52.944;9.098;2023-12-07T14:29:33;3.30;94.30
21108;DHT22;10712;52.944;9.098;2023-12-07T14:31:59;3.30;94.30
21108;DHT22;10712;52.944;9.098;2023-12-07T14:34:26;3.30;94.30
21108;DHT22;10712;52.944;9.098;2023-12-07T14:36:53;3.30;94.30
21108;DHT22;10712;52.944;9.098;2023-12-07T14:39:19;3.30;94.30
21108;DHT22;10712;52.944;9.098;2023-12-07T14:41:48;3.30;94.30
21108;DHT22;10712;52.944;9.098;2023-12-07T14:44:19;3.20;94.30
21108;DHT22;10712;52.944;9.098;2023-12-07T14:46:46;3.20;94.30
21108;DHT22;10712;52.944;9.098;2023-12-07T14:49:14;3.20;94.30
21108;DHT22;10712;52.944;9.098;2023-12-07T14:51:42;3.10;94.30
21108;DHT22;10712;52.944;9.098;2023-12-07T14:54:08;3.10;94.30
21108;DHT22;10712;52.944;9.098;2023-12-07T14:56:38;3.10;94.30
21108;DHT22;10712;52.944;9.098;2023-12-07T14:59:05;3.00;94.30
21108;DHT22;10712;52.944;9.098;2023-12-07T15:01:32;2.90;94.30
21108;DHT22;10712;52.944;9.098;2023-12-07T15:03:58;2.90;94.30
21108;DHT22;10712;52.944;9.098;2023-12-07T15:06:25;2.80;94.30
21108;DHT22;10712;52.944;9.098;2023-12-07T15:08:52;2.80;94.30
21108;DHT22;10712;52.944;9.098;2023-12-07T15:11:18;2.70;94.30
21108;DHT22;10712;52.944;9.098;2023-12-07T15:13:44;2.70;94.30
21108;DHT22;10712;52.944;9.098;2023-12-07T15:16:10;2.60;94.30
21108;DHT22;10712;52.944;9.098;2023-12-07T15:18:36;2.60;94.30
21108;DHT22;10712;52.944;9.098;2023-12-07T15:21:03;2.50;94.30
21108;DHT22;10712;52.944;9.098;2023-12-07T15:23:29;2.50;94.30
21108;DHT22;10712;52.944;9.098;2023-12-07T15:25:59;2.50;94.30
21108;DHT22;10712;52.944;9.098;2023-12-07T15:28:25;2.50;94.30
21108;DHT22;10712;52.944;9.098;2023-12-07T15:30:51;2.50;94.30
21108;DHT22;10712;52.944;9.098;2023-12-07T15:33:17;2.40;94.30
21108;DHT22;10712;52.944;9.098;2023-12-07T15:35:43;2.40;94.30
21108;DHT22;10712;52.944;9.098;2023-12-07T15:38:09;2.40;94.30
21108;DHT22;10712;52.944;9.098;2023-12-07T15:40:38;2.40;94.30
21108;DHT22;10712;52.944;9.098;2023-12-07T15:43:04;2.30;94.30
21108;DHT22;10712;52.944;9.098;2023-12-07T15:45:30;2.30;94.30
21108;DHT22;10712;52.944;9.098;2023-12-07T15:47:56;2.30;94.30